sensor_id;sensor_type;location;lat;lon;timestamp;pressure;altitude;pressure_sealevel;temperature;humidity
58879;BME280;44660;42.664;23.266;2023-01-29T00:01:02;94652.63;;;0.36;68.77
58879;BME280;44660;42.664;23.266;2023-01-29T00:03:28;94629.84;;;0.21;68.74
58879;BME280;44660;42.664;23.266;2023-01-29T00:05:53;94664.13;;;0.26;69.31
58879;BME280;44660;42.664;23.266;2023-01-29T00:08:19;94611.88;;;-0.20;69.93
58879;BME280;44660;42.664;23.266;2023-01-29T00:10:44;94601.81;;;-0.31;70.39
58879;BME280;44660;42.664;23.266;2023-01-29T00:13:09;94614.09;;;-0.09;70.17
58879;BME280;44660;42.664;23.266;2023-01-29T00:15:35;94653.97;;;0.08;70.28
58879;BME280;44660;42.664;23.266;2023-01-29T00:18:00;94637.22;;;0.03;70.60
58879;BME280;44660;42.664;23.266;2023-01-29T00:20:26;94605.22;;;-0.08;70.31
58879;BME280;44660;42.664;23.266;2023-01-29T00:22:51;94657.47;;;0.01;70.31
58879;BME280;44660;42.664;23.266;2023-01-29T00:25:16;94662.31;;;-0.11;70.69
58879;BME280;44660;42.664;23.266;2023-01-29T00:27:42;94662.63;;;-0.14;70.52
58879;BME280;44660;42.664;23.266;2023-01-29T00:30:09;94569.38;;;-0.69;70.52
58879;BME280;44660;42.664;23.266;2023-01-29T00:32:38;94581.66;;;-0.46;69.98
58879;BME280;44660;42.664;23.266;2023-01-29T00:35:04;94648.69;;;-0.07;70.44
58879;BME280;44660;42.664;23.266;2023-01-29T00:37:29;94655.44;;;-0.12;70.75
58879;BME280;44660;42.664;23.266;2023-01-29T00:39:55;94642.88;;;-0.17;70.75
58879;BME280;44660;42.664;23.266;2023-01-29T00:42:21;94606.19;;;-0.24;70.74
58879;BME280;44660;42.664;23.266;2023-01-29T00:45:06;94669.19;;;0.05;70.83
58879;BME280;44660;42.664;23.266;2023-01-29T00:47:31;94660.09;;;0.01;70.99
58879;BME280;44660;42.664;23.266;2023-01-29T00:50:10;94663.34;;;0.03;70.89
58879;BME280;44660;42.664;23.266;2023-01-29T00:52:36;94610.81;;;-0.34;70.63
58879;BME280;44660;42.664;23.266;2023-01-29T00:55:03;94652.09;;;-0.29;71.70
58879;BME280;44660;42.664;23.266;2023-01-29T00:57:31;94648.88;;;-0.08;71.35
58879;BME280;44660;42.664;23.266;2023-01-29T00:59:57;94674.22;;;-0.09;71.71
58879;BME280;44660;42.664;23.266;2023-01-29T01:02:23;94635.09;;;-0.25;71.70
58879;BME280;44660;42.664;23.266;2023-01-29T01:05:09;94656.50;;;0.02;71.62
58879;BME280;44660;42.664;23.266;2023-01-29T01:07:41;94591.06;;;-0.37;71.38
58879;BME280;44660;42.664;23.266;2023-01-29T01:10:11;94619.06;;;-0.22;71.49
58879;BME280;44660;42.664;23.266;2023-01-29T01:13:04;94661.81;;;-0.15;71.94
58879;BME280;44660;42.664;23.266;2023-01-29T01:15:33;94652.06;;;-0.21;72.15
58879;BME280;44660;42.664;23.266;2023-01-29T01:18:00;94668.97;;;-0.09;72.15
58879;BME280;44660;42.664;23.266;2023-01-29T01:20:28;94649.97;;;-0.26;72.23
58879;BME280;44660;42.664;23.266;2023-01-29T01:22:54;94661.13;;;-0.09;71.97
58879;BME280;44660;42.664;23.266;2023-01-29T01:25:24;94595.09;;;-0.57;72.34
58879;BME280;44660;42.664;23.266;2023-01-29T01:27:53;94653.75;;;-0.05;71.88
58879;BME280;44660;42.664;23.266;2023-01-29T01:30:19;94619.97;;;-0.38;71.79
58879;BME280;44660;42.664;23.266;2023-01-29T01:32:45;94655.06;;;-0.09;71.84
58879;BME280;44660;42.664;23.266;2023-01-29T01:35:11;94649.84;;;-0.32;72.10
58879;BME280;44660;42.664;23.266;2023-01-29T01:37:38;94651.66;;;-0.33;72.32
58879;BME280;44660;42.664;23.266;2023-01-29T01:40:15;94664.72;;;-0.10;72.18
58879;BME280;44660;42.664;23.266;2023-01-29T01:42:49;94648.38;;;-0.35;72.59
58879;BME280;44660;42.664;23.266;2023-01-29T01:45:25;94644.16;;;-0.13;72.16
58879;BME280;44660;42.664;23.266;2023-01-29T01:53:33;94641.03;;;-0.31;72.26
58879;BME280;44660;42.664;23.266;2023-01-29T01:56:10;94679.38;;;-0.01;72.19
58879;BME280;44660;42.664;23.266;2023-01-29T01:58:40;94658.22;;;-0.14;72.22
58879;BME280;44660;42.664;23.266;2023-01-29T02:01:08;94681.81;;;0.24;71.60
58879;BME280;44660;42.664;23.266;2023-01-29T02:03:42;94684.66;;;0.14;71.72
58879;BME280;44660;42.664;23.266;2023-01-29T02:06:29;94682.25;;;0.13;72.13
58879;BME280;44660;42.664;23.266;2023-01-29T02:09:21;94685.53;;;0.07;72.58
58879;BME280;44660;42.664;23.266;2023-01-29T02:12:13;94693.66;;;0.35;71.98
58879;BME280;44660;42.664;23.266;2023-01-29T02:14:41;94667.50;;;0.35;71.66
58879;BME280;44660;42.664;23.266;2023-01-29T02:17:10;94681.34;;;0.44;72.02
58879;BME280;44660;42.664;23.266;2023-01-29T02:36:37;94698.44;;;0.55;71.89
58879;BME280;44660;42.664;23.266;2023-01-29T02:39:20;94705.03;;;0.65;71.30
58879;BME280;44660;42.664;23.266;2023-01-29T02:44:55;94708.28;;;0.68;71.34
58879;BME280;44660;42.664;23.266;2023-01-29T02:47:41;94672.50;;;0.45;71.69
58879;BME280;44660;42.664;23.266;2023-01-29T02:50:20;94715.97;;;0.69;71.56
58879;BME280;44660;42.664;23.266;2023-01-29T02:57:56;94692.72;;;0.51;71.59
58879;BME280;44660;42.664;23.266;2023-01-29T03:00:31;94704.53;;;0.47;71.90
58879;BME280;44660;42.664;23.266;2023-01-29T03:03:01;94713.94;;;0.56;71.82
58879;BME280;44660;42.664;23.266;2023-01-29T03:05:44;94705.03;;;0.65;71.82
58879;BME280;44660;42.664;23.266;2023-01-29T03:08:20;94630.97;;;0.04;72.07
58879;BME280;44660;42.664;23.266;2023-01-29T03:10:53;94708.28;;;0.29;72.91
58879;BME280;44660;42.664;23.266;2023-01-29T03:16:10;94698.91;;;0.12;72.96
58879;BME280;44660;42.664;23.266;2023-01-29T03:18:44;94715.19;;;0.22;72.99
58879;BME280;44660;42.664;23.266;2023-01-29T03:21:17;94684.28;;;0.03;72.95
58879;BME280;44660;42.664;23.266;2023-01-29T03:24:03;94686.56;;;-0.03;72.66
58879;BME280;44660;42.664;23.266;2023-01-29T03:26:48;94700.94;;;0.25;71.73
58879;BME280;44660;42.664;23.266;2023-01-29T03:29:34;94692.44;;;-0.01;72.06
58879;BME280;44660;42.664;23.266;2023-01-29T03:32:20;94714.31;;;0.07;71.97
58879;BME280;44660;42.664;23.266;2023-01-29T03:34:52;94716.38;;;0.11;71.84
58879;BME280;44660;42.664;23.266;2023-01-29T03:37:25;94688.56;;;-0.05;71.74
58879;BME280;44660;42.664;23.266;2023-01-29T03:39:53;94663.91;;;-0.10;71.27
58879;BME280;44660;42.664;23.266;2023-01-29T03:47:53;94717.41;;;0.34;70.87
58879;BME280;44660;42.664;23.266;2023-01-29T03:53:29;94719.22;;;0.48;70.54
58879;BME280;44660;42.664;23.266;2023-01-29T03:56:00;94707.78;;;0.49;70.60
58879;BME280;44660;42.664;23.266;2023-01-29T03:58:37;94711.09;;;0.43;70.80
58879;BME280;44660;42.664;23.266;2023-01-29T04:01:13;94694.25;;;0.22;71.15
58879;BME280;44660;42.664;23.266;2023-01-29T04:03:48;94714.50;;;0.28;71.34
58879;BME280;44660;42.664;23.266;2023-01-29T04:06:19;94709.38;;;0.12;71.86
58879;BME280;44660;42.664;23.266;2023-01-29T04:08:55;94686.81;;;0.11;71.66
58879;BME280;44660;42.664;23.266;2023-01-29T04:11:23;94710.31;;;0.19;71.75
58879;BME280;44660;42.664;23.266;2023-01-29T04:13:50;94698.91;;;0.12;71.96
58879;BME280;44660;42.664;23.266;2023-01-29T04:16:37;94707.75;;;0.11;72.04
58879;BME280;44660;42.664;23.266;2023-01-29T04:19:04;94714.38;;;0.22;71.82
58879;BME280;44660;42.664;23.266;2023-01-29T04:21:30;94718.78;;;0.21;71.92
58879;BME280;44660;42.664;23.266;2023-01-29T04:23:58;94725.28;;;0.25;71.74
58879;BME280;44660;42.664;23.266;2023-01-29T04:35:15;94729.59;;;0.41;71.53
58879;BME280;44660;42.664;23.266;2023-01-29T04:37:40;94705.94;;;0.35;71.29
58879;BME280;44660;42.664;23.266;2023-01-29T04:43:34;94716.81;;;0.46;70.96
58879;BME280;44660;42.664;23.266;2023-01-29T04:48:28;94717.88;;;0.37;71.46
58879;BME280;44660;42.664;23.266;2023-01-29T04:51:31;94737.25;;;0.43;71.17
58879;BME280;44660;42.664;23.266;2023-01-29T04:57:01;94726.09;;;0.49;70.68
58879;BME280;44660;42.664;23.266;2023-01-29T04:59:33;94727.03;;;0.56;70.35
58879;BME280;44660;42.664;23.266;2023-01-29T05:02:00;94741.09;;;0.55;70.51
58879;BME280;44660;42.664;23.266;2023-01-29T05:04:28;94749.06;;;0.39;70.90
58879;BME280;44660;42.664;23.266;2023-01-29T05:06:57;94711.59;;;0.23;70.68
58879;BME280;44660;42.664;23.266;2023-01-29T05:09:25;94744.81;;;0.38;70.74
58879;BME280;44660;42.664;23.266;2023-01-29T05:11:51;94709.59;;;0.25;71.01
58879;BME280;44660;42.664;23.266;2023-01-29T05:14:17;94734.66;;;0.43;70.89
58879;BME280;44660;42.664;23.266;2023-01-29T05:16:51;94739.25;;;0.41;70.63
58879;BME280;44660;42.664;23.266;2023-01-29T05:19:18;94730.81;;;0.30;70.49
58879;BME280;44660;42.664;23.266;2023-01-29T05:21:45;94661.47;;;-0.12;70.89
58879;BME280;44660;42.664;23.266;2023-01-29T05:24:19;94743.66;;;0.40;70.80
58879;BME280;44660;42.664;23.266;2023-01-29T05:26:47;94750.78;;;0.55;70.78
58879;BME280;44660;42.664;23.266;2023-01-29T05:29:32;94757.50;;;0.49;70.77
58879;BME280;44660;42.664;23.266;2023-01-29T05:31:57;94720.53;;;0.29;70.69
58879;BME280;44660;42.664;23.266;2023-01-29T05:34:23;94691.69;;;0.14;70.23
58879;BME280;44660;42.664;23.266;2023-01-29T05:36:49;94743.78;;;0.47;70.32
58879;BME280;44660;42.664;23.266;2023-01-29T05:39:15;94758.06;;;0.59;70.35
58879;BME280;44660;42.664;23.266;2023-01-29T05:41:40;94686.03;;;0.25;70.08
58879;BME280;44660;42.664;23.266;2023-01-29T05:44:06;94696.69;;;0.24;70.34
58879;BME280;44660;42.664;23.266;2023-01-29T05:46:31;94748.72;;;0.65;69.88
58879;BME280;44660;42.664;23.266;2023-01-29T05:48:57;94757.56;;;0.64;69.99
58879;BME280;44660;42.664;23.266;2023-01-29T05:51:23;94729.94;;;0.61;69.83
58879;BME280;44660;42.664;23.266;2023-01-29T05:53:48;94747.59;;;0.59;70.03
58879;BME280;44660;42.664;23.266;2023-01-29T05:56:14;94720.06;;;0.25;70.30
58879;BME280;44660;42.664;23.266;2023-01-29T05:58:39;94773.16;;;0.57;70.49
58879;BME280;44660;42.664;23.266;2023-01-29T06:01:13;94763.50;;;0.58;70.53
58879;BME280;44660;42.664;23.266;2023-01-29T06:03:39;94758.72;;;0.61;70.08
58879;BME280;44660;42.664;23.266;2023-01-29T06:06:05;94724.13;;;0.51;69.96
58879;BME280;44660;42.664;23.266;2023-01-29T06:08:30;94768.56;;;0.83;69.57
58879;BME280;44660;42.664;23.266;2023-01-29T06:10:55;94738.13;;;0.58;69.80
58879;BME280;44660;42.664;23.266;2023-01-29T06:13:21;94787.88;;;0.96;69.87
58879;BME280;44660;42.664;23.266;2023-01-29T06:15:46;94787.78;;;0.90;69.90
58879;BME280;44660;42.664;23.266;2023-01-29T06:18:12;94769.59;;;0.73;70.21
58879;BME280;44660;42.664;23.266;2023-01-29T06:20:38;94755.63;;;0.58;70.26
58879;BME280;44660;42.664;23.266;2023-01-29T06:23:03;94687.31;;;0.06;70.34
58879;BME280;44660;42.664;23.266;2023-01-29T06:25:29;94788.75;;;0.74;70.37
58879;BME280;44660;42.664;23.266;2023-01-29T06:27:55;94797.16;;;0.61;70.49
58879;BME280;44660;42.664;23.266;2023-01-29T06:30:20;94813.47;;;0.71;70.84
58879;BME280;44660;42.664;23.266;2023-01-29T06:32:46;94803.16;;;0.70;70.83
58879;BME280;44660;42.664;23.266;2023-01-29T06:35:11;94836.28;;;0.62;71.38
58879;BME280;44660;42.664;23.266;2023-01-29T06:37:37;94762.53;;;0.36;71.21
58879;BME280;44660;42.664;23.266;2023-01-29T06:40:02;94817.34;;;0.75;70.99
58879;BME280;44660;42.664;23.266;2023-01-29T06:42:28;94778.53;;;0.56;71.00
58879;BME280;44660;42.664;23.266;2023-01-29T06:44:54;94813.00;;;0.68;71.51
58879;BME280;44660;42.664;23.266;2023-01-29T06:47:20;94822.41;;;0.77;71.39
58879;BME280;44660;42.664;23.266;2023-01-29T06:49:45;94765.03;;;0.52;70.92
58879;BME280;44660;42.664;23.266;2023-01-29T06:52:11;94785.53;;;0.63;71.02
58879;BME280;44660;42.664;23.266;2023-01-29T06:54:36;94803.00;;;0.71;70.95
58879;BME280;44660;42.664;23.266;2023-01-29T06:57:02;94806.13;;;0.67;70.89
58879;BME280;44660;42.664;23.266;2023-01-29T06:59:27;94780.06;;;0.50;70.98
58879;BME280;44660;42.664;23.266;2023-01-29T07:01:52;94828.22;;;0.87;71.00
58879;BME280;44660;42.664;23.266;2023-01-29T07:04:18;94794.03;;;0.65;70.66
58879;BME280;44660;42.664;23.266;2023-01-29T07:06:43;94766.22;;;0.64;70.64
58879;BME280;44660;42.664;23.266;2023-01-29T07:09:11;94818.31;;;0.83;71.01
58879;BME280;44660;42.664;23.266;2023-01-29T07:11:37;94829.69;;;0.90;71.05
58879;BME280;44660;42.664;23.266;2023-01-29T07:14:03;94799.84;;;0.76;70.71
58879;BME280;44660;42.664;23.266;2023-01-29T07:16:28;94852.38;;;0.97;70.29
58879;BME280;44660;42.664;23.266;2023-01-29T07:18:54;94794.50;;;0.69;70.29
58879;BME280;44660;42.664;23.266;2023-01-29T07:21:19;94821.03;;;0.89;70.08
58879;BME280;44660;42.664;23.266;2023-01-29T07:23:45;94840.38;;;1.03;70.06
58879;BME280;44660;42.664;23.266;2023-01-29T07:26:10;94833.88;;;0.76;69.93
58879;BME280;44660;42.664;23.266;2023-01-29T07:28:37;94862.56;;;0.92;70.01
58879;BME280;44660;42.664;23.266;2023-01-29T07:31:03;94835.75;;;0.90;70.02
58879;BME280;44660;42.664;23.266;2023-01-29T07:33:29;94853.94;;;1.07;69.90
58879;BME280;44660;42.664;23.266;2023-01-29T07:35:55;94835.78;;;0.82;69.99
58879;BME280;44660;42.664;23.266;2023-01-29T07:38:20;94839.06;;;0.84;69.95
58879;BME280;44660;42.664;23.266;2023-01-29T07:40:46;94869.31;;;0.87;70.39
58879;BME280;44660;42.664;23.266;2023-01-29T07:43:12;94820.50;;;0.47;70.57
58879;BME280;44660;42.664;23.266;2023-01-29T07:45:39;94868.16;;;0.89;70.27
58879;BME280;44660;42.664;23.266;2023-01-29T07:48:06;94870.97;;;1.03;70.20
58879;BME280;44660;42.664;23.266;2023-01-29T07:50:33;94838.06;;;0.62;70.59
58879;BME280;44660;42.664;23.266;2023-01-29T07:52:59;94882.81;;;0.98;70.37
58879;BME280;44660;42.664;23.266;2023-01-29T07:55:24;94874.38;;;0.88;70.72
58879;BME280;44660;42.664;23.266;2023-01-29T07:58:00;94862.50;;;0.77;70.17
58879;BME280;44660;42.664;23.266;2023-01-29T08:00:26;94868.25;;;0.73;70.51
58879;BME280;44660;42.664;23.266;2023-01-29T08:02:52;94855.75;;;0.83;70.54
58879;BME280;44660;42.664;23.266;2023-01-29T08:05:17;94867.28;;;0.97;70.18
58879;BME280;44660;42.664;23.266;2023-01-29T08:07:43;94830.75;;;0.57;70.30
58879;BME280;44660;42.664;23.266;2023-01-29T08:10:09;94883.50;;;0.92;70.45
58879;BME280;44660;42.664;23.266;2023-01-29T08:12:34;94851.13;;;0.62;70.42
58879;BME280;44660;42.664;23.266;2023-01-29T08:15:00;94890.34;;;1.02;70.23
58879;BME280;44660;42.664;23.266;2023-01-29T08:17:25;94860.22;;;0.74;70.43
58879;BME280;44660;42.664;23.266;2023-01-29T08:19:51;94886.09;;;1.01;70.18
58879;BME280;44660;42.664;23.266;2023-01-29T08:22:16;94881.19;;;0.97;70.05
58879;BME280;44660;42.664;23.266;2023-01-29T08:24:42;94902.13;;;0.97;70.13
58879;BME280;44660;42.664;23.266;2023-01-29T08:27:08;94873.72;;;0.86;69.54
58879;BME280;44660;42.664;23.266;2023-01-29T08:29:34;94887.56;;;0.95;69.49
58879;BME280;44660;42.664;23.266;2023-01-29T08:31:59;94892.13;;;0.78;69.42
58879;BME280;44660;42.664;23.266;2023-01-29T08:34:25;94892.13;;;0.78;69.76
58879;BME280;44660;42.664;23.266;2023-01-29T08:36:50;94891.47;;;0.76;69.83
58879;BME280;44660;42.664;23.266;2023-01-29T08:39:17;94859.53;;;0.57;69.66
58879;BME280;44660;42.664;23.266;2023-01-29T08:41:43;94840.91;;;0.52;69.56
58879;BME280;44660;42.664;23.266;2023-01-29T08:44:08;94909.34;;;0.95;69.25
58879;BME280;44660;42.664;23.266;2023-01-29T08:46:33;94907.72;;;0.94;69.28
58879;BME280;44660;42.664;23.266;2023-01-29T08:48:59;94814.22;;;0.25;69.33
58879;BME280;44660;42.664;23.266;2023-01-29T08:51:25;94910.06;;;0.89;69.47
58879;BME280;44660;42.664;23.266;2023-01-29T08:53:51;94885.03;;;0.87;68.95
58879;BME280;44660;42.664;23.266;2023-01-29T08:56:17;94894.56;;;1.03;68.33
58879;BME280;44660;42.664;23.266;2023-01-29T08:58:42;94922.97;;;1.14;68.55
58879;BME280;44660;42.664;23.266;2023-01-29T09:01:10;94898.06;;;0.95;68.66
58879;BME280;44660;42.664;23.266;2023-01-29T09:03:36;94917.16;;;1.04;68.54
58879;BME280;44660;42.664;23.266;2023-01-29T09:06:05;94936.56;;;0.86;69.24
58879;BME280;44660;42.664;23.266;2023-01-29T09:08:30;94925.50;;;0.76;69.39
58879;BME280;44660;42.664;23.266;2023-01-29T09:10:58;94932.34;;;0.85;69.46
58879;BME280;44660;42.664;23.266;2023-01-29T09:13:24;94914.72;;;0.71;69.59
58879;BME280;44660;42.664;23.266;2023-01-29T09:15:49;94875.81;;;0.68;69.04
58879;BME280;44660;42.664;23.266;2023-01-29T09:18:15;94925.66;;;1.06;68.83
58879;BME280;44660;42.664;23.266;2023-01-29T09:20:40;94906.88;;;0.94;68.79
58879;BME280;44660;42.664;23.266;2023-01-29T09:23:07;94905.63;;;0.90;69.07
58879;BME280;44660;42.664;23.266;2023-01-29T09:25:34;94899.31;;;0.76;68.90
58879;BME280;44660;42.664;23.266;2023-01-29T09:28:00;94902.22;;;0.81;68.93
58879;BME280;44660;42.664;23.266;2023-01-29T09:30:25;94896.66;;;0.84;68.67
58879;BME280;44660;42.664;23.266;2023-01-29T09:32:51;94867.41;;;0.49;68.94
58879;BME280;44660;42.664;23.266;2023-01-29T09:35:16;94908.06;;;0.91;68.87
58879;BME280;44660;42.664;23.266;2023-01-29T09:37:42;94858.41;;;0.75;68.40
58879;BME280;44660;42.664;23.266;2023-01-29T09:40:22;94887.59;;;1.18;68.43
58879;BME280;44660;42.664;23.266;2023-01-29T09:42:59;94862.09;;;1.12;67.94
58879;BME280;44660;42.664;23.266;2023-01-29T09:45:27;94881.63;;;1.24;67.38
58879;BME280;44660;42.664;23.266;2023-01-29T09:47:59;94903.47;;;1.40;67.57
58879;BME280;44660;42.664;23.266;2023-01-29T09:50:34;94904.28;;;1.40;67.30
58879;BME280;44660;42.664;23.266;2023-01-29T09:53:33;94898.66;;;1.43;67.20
58879;BME280;44660;42.664;23.266;2023-01-29T09:56:01;94905.72;;;1.43;67.63
58879;BME280;44660;42.664;23.266;2023-01-29T09:58:33;94884.09;;;1.41;67.61
58879;BME280;44660;42.664;23.266;2023-01-29T10:03:57;94898.31;;;1.46;67.29
58879;BME280;44660;42.664;23.266;2023-01-29T10:12:52;94887.50;;;1.65;66.73
58879;BME280;44660;42.664;23.266;2023-01-29T10:15:41;94874.22;;;1.51;66.98
58879;BME280;44660;42.664;23.266;2023-01-29T10:23:31;94879.16;;;1.46;67.07
58879;BME280;44660;42.664;23.266;2023-01-29T10:25:57;94839.56;;;1.26;67.14
58879;BME280;44660;42.664;23.266;2023-01-29T10:31:40;94819.00;;;1.14;67.27
58879;BME280;44660;42.664;23.266;2023-01-29T10:33:53;94840.22;;;1.05;67.54
58879;BME280;44660;42.664;23.266;2023-01-29T10:36:47;94863.19;;;1.18;68.15
58879;BME280;44660;42.664;23.266;2023-01-29T10:39:18;94834.59;;;1.08;68.01
58879;BME280;44660;42.664;23.266;2023-01-29T10:44:59;94869.59;;;1.53;67.70
58879;BME280;44660;42.664;23.266;2023-01-29T10:47:57;94866.69;;;1.48;67.57
58879;BME280;44660;42.664;23.266;2023-01-29T10:53:21;94862.53;;;1.39;67.89
58879;BME280;44660;42.664;23.266;2023-01-29T10:58:33;94861.69;;;1.38;68.01
58879;BME280;44660;42.664;23.266;2023-01-29T11:01:00;94817.91;;;1.09;68.03
58879;BME280;44660;42.664;23.266;2023-01-29T11:03:28;94867.94;;;1.52;68.02
58879;BME280;44660;42.664;23.266;2023-01-29T11:06:26;94859.09;;;1.53;68.01
58879;BME280;44660;42.664;23.266;2023-01-29T11:14:24;94822.56;;;1.37;67.61
58879;BME280;44660;42.664;23.266;2023-01-29T11:16:51;94862.81;;;1.44;67.62
58879;BME280;44660;42.664;23.266;2023-01-29T11:19:38;94671.00;;;0.27;67.94
58879;BME280;44660;42.664;23.266;2023-01-29T11:22:04;94847.66;;;1.16;68.62
58879;BME280;44660;42.664;23.266;2023-01-29T11:24:29;94842.75;;;1.13;68.68
58879;BME280;44660;42.664;23.266;2023-01-29T11:26:57;94845.03;;;1.16;68.67
58879;BME280;44660;42.664;23.266;2023-01-29T11:29:37;94801.53;;;0.92;68.62
58879;BME280;44660;42.664;23.266;2023-01-29T11:32:06;94797.97;;;0.85;68.77
58879;BME280;44660;42.664;23.266;2023-01-29T11:34:32;94655.78;;;0.08;68.70
58879;BME280;44660;42.664;23.266;2023-01-29T11:37:03;94730.88;;;0.69;68.29
58879;BME280;44660;42.664;23.266;2023-01-29T11:39:43;94821.16;;;1.49;68.00
58879;BME280;44660;42.664;23.266;2023-01-29T11:42:21;94735.34;;;0.60;67.88
58879;BME280;44660;42.664;23.266;2023-01-29T11:44:47;94817.00;;;1.17;68.47
58879;BME280;44660;42.664;23.266;2023-01-29T11:49:52;94750.34;;;1.04;67.86
58879;BME280;44660;42.664;23.266;2023-01-29T11:52:21;94713.81;;;0.73;67.91
58879;BME280;44660;42.664;23.266;2023-01-29T11:54:57;94811.00;;;1.46;67.57
58879;BME280;44660;42.664;23.266;2023-01-29T11:57:31;94793.41;;;1.40;67.76
58879;BME280;44660;42.664;23.266;2023-01-29T12:00:04;94808.31;;;1.54;67.75
58879;BME280;44660;42.664;23.266;2023-01-29T12:02:41;94791.31;;;1.50;67.90
58879;BME280;44660;42.664;23.266;2023-01-29T12:05:17;94737.78;;;1.29;67.35
58879;BME280;44660;42.664;23.266;2023-01-29T12:07:46;94744.69;;;1.45;67.13
58879;BME280;44660;42.664;23.266;2023-01-29T12:13:26;94802.50;;;1.74;67.09
58879;BME280;44660;42.664;23.266;2023-01-29T12:22:03;94799.25;;;2.02;66.78
58879;BME280;44660;42.664;23.266;2023-01-29T12:24:40;94792.47;;;2.07;66.70
58879;BME280;44660;42.664;23.266;2023-01-29T12:27:36;94802.69;;;2.17;66.58
58879;BME280;44660;42.664;23.266;2023-01-29T12:30:21;94809.19;;;2.21;66.05
58879;BME280;44660;42.664;23.266;2023-01-29T12:33:40;94789.66;;;2.09;66.06
58879;BME280;44660;42.664;23.266;2023-01-29T12:36:13;94773.47;;;2.05;66.18
58879;BME280;44660;42.664;23.266;2023-01-29T12:38:42;94760.47;;;1.97;65.91
58879;BME280;44660;42.664;23.266;2023-01-29T12:43:54;94805.66;;;2.14;66.03
58879;BME280;44660;42.664;23.266;2023-01-29T12:46:27;94803.22;;;2.12;66.09
58879;BME280;44660;42.664;23.266;2023-01-29T12:48:56;94794.13;;;1.93;66.27
58879;BME280;44660;42.664;23.266;2023-01-29T12:51:30;94786.31;;;2.00;66.08
58879;BME280;44660;42.664;23.266;2023-01-29T12:54:05;94807.22;;;2.08;66.11
58879;BME280;44660;42.664;23.266;2023-01-29T12:56:59;94781.25;;;1.99;66.06
58879;BME280;44660;42.664;23.266;2023-01-29T12:59:38;94793.53;;;2.13;66.00
58879;BME280;44660;42.664;23.266;2023-01-29T13:02:30;94802.94;;;2.22;66.28
58879;BME280;44660;42.664;23.266;2023-01-29T13:05:01;94784.91;;;2.19;65.70
58879;BME280;44660;42.664;23.266;2023-01-29T13:07:38;94768.56;;;2.17;65.63
58879;BME280;44660;42.664;23.266;2023-01-29T13:10:12;94800.78;;;2.48;65.23
58879;BME280;44660;42.664;23.266;2023-01-29T13:12:44;94794.34;;;2.50;64.99
58879;BME280;44660;42.664;23.266;2023-01-29T13:15:25;94789.59;;;2.39;65.07
58879;BME280;44660;42.664;23.266;2023-01-29T13:17:56;94791.97;;;2.34;65.17
58879;BME280;44660;42.664;23.266;2023-01-29T13:20:28;94688.72;;;1.53;65.51
58879;BME280;44660;42.664;23.266;2023-01-29T13:22:57;94787.66;;;2.11;65.78
58879;BME280;44660;42.664;23.266;2023-01-29T13:25:26;94738.78;;;1.73;66.29
58879;BME280;44660;42.664;23.266;2023-01-29T13:27:51;94804.66;;;2.15;66.46
58879;BME280;44660;42.664;23.266;2023-01-29T13:30:27;94798.03;;;2.19;66.31
58879;BME280;44660;42.664;23.266;2023-01-29T13:32:55;94802.69;;;2.17;66.21
58879;BME280;44660;42.664;23.266;2023-01-29T13:35:36;94806.81;;;2.26;66.26
58879;BME280;44660;42.664;23.266;2023-01-29T13:38:04;94814.41;;;2.36;65.94
58879;BME280;44660;42.664;23.266;2023-01-29T13:40:31;94795.22;;;2.21;65.86
58879;BME280;44660;42.664;23.266;2023-01-29T13:42:59;94772.09;;;2.09;65.91
58879;BME280;44660;42.664;23.266;2023-01-29T13:45:42;94820.19;;;2.32;65.61
58879;BME280;44660;42.664;23.266;2023-01-29T13:50:40;94797.91;;;2.06;65.79
58879;BME280;44660;42.664;23.266;2023-01-29T13:53:08;94828.00;;;2.10;65.65
58879;BME280;44660;42.664;23.266;2023-01-29T13:55:43;94828.38;;;2.07;65.79
58879;BME280;44660;42.664;23.266;2023-01-29T13:58:31;94754.81;;;1.49;66.66
58879;BME280;44660;42.664;23.266;2023-01-29T14:01:02;94832.44;;;1.65;67.38
58879;BME280;44660;42.664;23.266;2023-01-29T14:05:56;94832.53;;;1.71;67.36
58879;BME280;44660;42.664;23.266;2023-01-29T14:13:45;94812.19;;;1.58;67.80
58879;BME280;44660;42.664;23.266;2023-01-29T14:18:47;94803.25;;;1.53;67.97
58879;BME280;44660;42.664;23.266;2023-01-29T14:21:21;94826.88;;;1.68;67.98
58879;BME280;44660;42.664;23.266;2023-01-29T14:23:54;94849.72;;;1.74;67.87
58879;BME280;44660;42.664;23.266;2023-01-29T14:26:32;94849.63;;;1.67;68.05
58879;BME280;44660;42.664;23.266;2023-01-29T14:29:03;94846.19;;;1.67;68.07
58879;BME280;44660;42.664;23.266;2023-01-29T14:34:12;94857.03;;;1.63;68.03
58879;BME280;44660;42.664;23.266;2023-01-29T14:36:41;94808.09;;;1.26;68.21
58879;BME280;44660;42.664;23.266;2023-01-29T14:39:19;94853.06;;;1.53;68.14
58879;BME280;44660;42.664;23.266;2023-01-29T14:41:45;94843.75;;;1.50;68.07
58879;BME280;44660;42.664;23.266;2023-01-29T14:47:20;94863.72;;;1.66;68.01
58879;BME280;44660;42.664;23.266;2023-01-29T14:52:43;94826.59;;;1.24;68.05
58879;BME280;44660;42.664;23.266;2023-01-29T14:55:36;94842.25;;;1.33;68.19
58879;BME280;44660;42.664;23.266;2023-01-29T14:58:03;94827.03;;;1.13;67.79
58879;BME280;44660;42.664;23.266;2023-01-29T15:00:33;94858.19;;;1.46;67.56
58879;BME280;44660;42.664;23.266;2023-01-29T15:03:01;94807.00;;;1.20;67.52
58879;BME280;44660;42.664;23.266;2023-01-29T15:05:36;94862.88;;;1.36;67.89
58879;BME280;44660;42.664;23.266;2023-01-29T15:08:22;94865.31;;;1.37;68.16
58879;BME280;44660;42.664;23.266;2023-01-29T15:10:56;94858.72;;;1.41;67.98
58879;BME280;44660;42.664;23.266;2023-01-29T15:19:15;94862.53;;;1.39;68.16
58879;BME280;44660;42.664;23.266;2023-01-29T15:22:07;94800.03;;;1.12;67.98
58879;BME280;44660;42.664;23.266;2023-01-29T15:24:33;94833.41;;;1.34;68.07
58879;BME280;44660;42.664;23.266;2023-01-29T15:26:59;94846.09;;;1.45;67.73
58879;BME280;44660;42.664;23.266;2023-01-29T15:29:26;94857.47;;;1.52;67.66
58879;BME280;44660;42.664;23.266;2023-01-29T15:31:53;94864.28;;;1.61;67.55